Time;durP1;ratioP1;P1;durP2;ratioP2;P2;SDS_P1;SDS_P2;PMS_P1;PMS_P2;Temp;Humidity;BMP_temperature;BMP_pressure;BME280_temperature;BME280_humidity;BME280_pressure;Samples;Min_cycle;Max_cycle;Signal;HPM_P1;HPM_P2
2022/04/07 00:01:39;;;;;;;8.60;5.20;;;;;;;9.37;64.23;95123.40;108093;1270;40853;-76
2022/04/07 00:04:15;;;;;;;8.20;5.30;;;;;;;9.38;64.32;95116.93;108067;1270;36481;-76
2022/04/07 00:06:46;;;;;;;7.50;4.40;;;;;;;9.38;64.25;95116.71;108105;1270;46616;-76
2022/04/07 00:09:17;;;;;;;7.60;5.00;;;;;;;9.38;64.28;95113.86;108133;1270;40127;-76
2022/04/07 00:11:48;;;;;;;7.10;5.20;;;;;;;9.43;64.18;95115.27;108097;1270;37912;-76
2022/04/07 00:14:18;;;;;;;7.90;5.10;;;;;;;9.45;64.18;95111.84;108036;1270;47624;-76
2022/04/07 00:16:49;;;;;;;6.40;4.10;;;;;;;9.47;64.07;95111.25;108085;1270;42449;-76
2022/04/07 00:19:22;;;;;;;8.20;5.30;;;;;;;9.46;64.03;95106.33;108002;1273;45043;-76
2022/04/07 00:21:57;;;;;;;9.50;5.40;;;;;;;9.55;63.92;95099.11;108097;1270;37208;-76
2022/04/07 00:24:28;;;;;;;6.40;4.70;;;;;;;9.59;63.94;95097.48;108084;1270;40255;-76
2022/04/07 00:26:59;;;;;;;8.70;5.30;;;;;;;9.58;63.86;95092.91;108011;1270;44716;-76
2022/04/07 00:29:31;;;;;;;7.80;5.40;;;;;;;9.60;63.83;95087.65;107964;1273;39992;-76
2022/04/07 00:32:05;;;;;;;10.20;5.40;;;;;;;9.64;63.81;95084.29;108089;1270;45249;-76
2022/04/07 00:34:37;;;;;;;6.90;5.30;;;;;;;9.72;63.70;95078.09;107905;1270;293293;-76
2022/04/07 00:37:08;;;;;;;7.70;5.30;;;;;;;9.77;63.64;95075.60;108103;1270;37050;-76
2022/04/07 00:39:40;;;;;;;8.60;5.40;;;;;;;9.78;63.48;95072.55;108020;1271;37937;-76
2022/04/07 00:42:11;;;;;;;7.40;5.10;;;;;;;9.80;63.49;95068.37;108165;1270;35294;-76
2022/04/07 00:44:43;;;;;;;10.00;6.10;;;;;;;9.76;63.51;95068.59;108032;1271;31404;-76
2022/04/07 00:47:14;;;;;;;9.80;5.30;;;;;;;9.78;63.46;95067.81;108133;1270;33296;-76
2022/04/07 00:49:45;;;;;;;7.90;5.60;;;;;;;9.82;63.36;95065.19;108052;1270;31259;-76
2022/04/07 00:52:18;;;;;;;8.00;5.50;;;;;;;9.85;63.32;95057.31;108048;1270;47735;-76
2022/04/07 00:54:49;;;;;;;6.80;4.90;;;;;;;9.87;63.26;95053.03;108126;1270;38408;-76
2022/04/07 00:57:21;;;;;;;9.40;5.40;;;;;;;9.88;63.24;95053.38;108063;1270;45051;-76
2022/04/07 00:59:52;;;;;;;6.60;5.00;;;;;;;9.88;63.06;95050.95;108082;1270;36103;-76
2022/04/07 01:02:23;;;;;;;6.00;4.90;;;;;;;9.88;62.98;95049.14;108023;1270;42859;-76
2022/04/07 01:04:54;;;;;;;8.70;5.50;;;;;;;9.87;62.95;95045.04;108065;1270;36022;-75
2022/04/07 01:07:25;;;;;;;7.10;5.30;;;;;;;9.85;62.88;95050.49;108109;1270;33148;-76
2022/04/07 01:09:56;;;;;;;7.80;5.30;;;;;;;9.86;62.85;95047.52;108102;1270;38427;-76
2022/04/07 01:12:27;;;;;;;8.00;5.50;;;;;;;9.88;62.78;95039.15;108090;1269;31431;-75
2022/04/07 01:15:00;;;;;;;7.30;4.70;;;;;;;9.89;62.67;95038.73;108051;1270;39875;-76
2022/04/07 01:17:31;;;;;;;8.20;5.10;;;;;;;9.87;62.58;95042.73;108091;1270;34063;-76
2022/04/07 01:20:02;;;;;;;6.70;4.80;;;;;;;9.86;62.72;95037.02;108115;1270;30390;-76
2022/04/07 01:22:35;;;;;;;10.20;5.60;;;;;;;9.82;62.57;95038.82;108136;1270;35546;-76
2022/04/07 01:25:09;;;;;;;6.80;4.80;;;;;;;9.80;62.64;95035.48;108145;1270;47368;-76
2022/04/07 01:27:40;;;;;;;6.20;5.00;;;;;;;9.81;62.63;95033.34;108253;1270;40050;-76
2022/04/07 01:30:12;;;;;;;7.70;5.20;;;;;;;9.83;62.53;95044.45;108086;1270;34735;-76
2022/04/07 01:32:45;;;;;;;6.90;4.90;;;;;;;9.81;62.64;95034.92;107984;1270;39815;-76
2022/04/07 01:35:17;;;;;;;7.60;5.40;;;;;;;9.73;62.69;95038.27;108105;1270;38623;-76
2022/04/07 01:37:49;;;;;;;5.50;4.40;;;;;;;9.61;62.86;95037.79;108025;1270;40036;-76
2022/04/07 01:40:24;;;;;;;7.10;4.60;;;;;;;9.51;63.04;95038.73;108074;1269;41004;-76
2022/04/07 01:42:55;;;;;;;6.50;4.60;;;;;;;9.46;63.29;95037.09;108053;1270;49299;-76
2022/04/07 01:45:27;;;;;;;7.00;4.60;;;;;;;9.40;63.40;95036.56;108107;1270;43793;-75
2022/04/07 01:47:58;;;;;;;5.80;4.20;;;;;;;9.38;63.51;95035.47;108003;1271;37616;-76
2022/04/07 01:50:33;;;;;;;7.50;5.10;;;;;;;9.34;63.71;95025.86;107999;1270;41951;-76
2022/04/07 01:53:05;;;;;;;6.50;5.30;;;;;;;9.27;63.78;95024.40;108158;1270;34132;-76
2022/04/07 01:55:37;;;;;;;7.80;4.20;;;;;;;9.26;63.87;95018.90;108109;1270;45794;-76
2022/04/07 01:58:08;;;;;;;7.40;5.30;;;;;;;9.24;64.01;95023.02;108106;1270;35833;-76
2022/04/07 02:00:42;;;;;;;9.20;5.40;;;;;;;9.28;64.02;95016.42;108094;1270;44663;-76
2022/04/07 02:03:13;;;;;;;8.40;5.80;;;;;;;9.35;64.04;95018.15;107968;1273;43460;-76
2022/04/07 02:05:44;;;;;;;7.80;5.00;;;;;;;9.37;63.92;95018.89;108054;1270;36808;-76
2022/04/07 02:08:15;;;;;;;10.10;6.00;;;;;;;9.41;63.90;95015.27;108035;1270;35730;-76
2022/04/07 02:10:46;;;;;;;6.90;4.90;;;;;;;9.42;63.89;95016.52;108034;1270;41307;-76
2022/04/07 02:13:16;;;;;;;8.10;5.50;;;;;;;9.42;63.90;95012.98;108069;1270;41164;-76
2022/04/07 02:15:47;;;;;;;6.50;4.70;;;;;;;9.41;63.96;95013.52;108094;1270;44283;-76
2022/04/07 02:18:18;;;;;;;7.20;4.80;;;;;;;9.45;63.91;95010.88;108087;1270;41716;-75
2022/04/07 02:20:49;;;;;;;5.90;4.60;;;;;;;9.48;63.98;95012.23;108055;1270;38048;-76
2022/04/07 02:23:20;;;;;;;8.00;5.20;;;;;;;9.42;63.97;95012.46;108116;1270;30885;-76
2022/04/07 02:25:51;;;;;;;7.80;5.50;;;;;;;9.37;64.03;95010.50;108105;1270;33136;-76
2022/04/07 02:28:23;;;;;;;9.20;4.90;;;;;;;9.36;64.21;95010.73;108139;1270;36388;-76
2022/04/07 02:30:53;;;;;;;7.10;5.40;;;;;;;9.33;64.27;95005.12;108068;1270;34507;-76
2022/04/07 02:33:24;;;;;;;6.60;4.30;;;;;;;9.34;64.22;95012.86;108007;1270;96414;-76
2022/04/07 02:35:55;;;;;;;8.70;5.60;;;;;;;9.34;64.24;95011.36;108077;1270;43145;-76
2022/04/07 02:38:26;;;;;;;8.50;5.40;;;;;;;9.35;64.28;95013.67;108097;1270;42141;-75
2022/04/07 02:40:57;;;;;;;8.10;5.40;;;;;;;9.29;64.38;95012.73;107979;1270;111115;-76
2022/04/07 02:43:29;;;;;;;6.10;4.60;;;;;;;9.21;64.58;95014.39;108080;1270;41472;-76
2022/04/07 02:46:00;;;;;;;6.70;4.90;;;;;;;9.16;64.72;95017.86;108081;1269;35245;-76
2022/04/07 02:48:30;;;;;;;7.90;5.60;;;;;;;9.16;64.87;95020.04;108065;1270;38896;-76
2022/04/07 02:51:02;;;;;;;7.60;4.90;;;;;;;9.12;64.96;95018.86;108070;1270;30444;-75
2022/04/07 02:53:33;;;;;;;8.30;5.40;;;;;;;9.07;65.17;95017.67;108122;1270;74527;-76
2022/04/07 02:56:04;;;;;;;6.90;4.80;;;;;;;9.06;65.20;95015.77;108076;1270;32624;-76
2022/04/07 02:58:35;;;;;;;7.10;5.40;;;;;;;9.06;65.22;95019.58;108163;1270;33018;-76
2022/04/07 03:01:06;;;;;;;8.50;5.40;;;;;;;9.07;65.14;95020.85;108069;1270;42030;-76
2022/04/07 03:03:37;;;;;;;6.60;4.80;;;;;;;9.09;65.16;95021.60;108158;1270;31025;-76
2022/04/07 03:06:08;;;;;;;8.30;5.20;;;;;;;9.08;65.29;95021.26;108134;1270;30798;-76
2022/04/07 03:08:39;;;;;;;8.90;5.70;;;;;;;9.11;65.25;95021.04;108059;1270;44576;-76
2022/04/07 03:11:13;;;;;;;6.80;5.20;;;;;;;9.14;65.13;95025.89;108114;1270;39764;-75
2022/04/07 03:13:44;;;;;;;7.30;5.10;;;;;;;9.17;65.19;95023.35;108125;1270;41236;-75
2022/04/07 03:16:15;;;;;;;7.10;5.10;;;;;;;9.18;65.01;95020.45;108052;1269;58279;-76
2022/04/07 03:18:46;;;;;;;7.70;5.00;;;;;;;9.17;65.09;95020.52;107992;1271;42157;-76
2022/04/07 03:21:17;;;;;;;6.60;4.60;;;;;;;9.18;65.01;95021.56;108096;1270;43627;-75
2022/04/07 03:23:47;;;;;;;8.70;5.50;;;;;;;9.18;64.99;95022.94;108088;1270;40772;-76
2022/04/07 03:26:18;;;;;;;7.60;5.70;;;;;;;9.19;65.06;95024.59;107968;1273;37063;-76
2022/04/07 03:28:52;;;;;;;7.10;5.00;;;;;;;9.22;64.99;95024.47;108097;1270;47606;-75
2022/04/07 03:31:23;;;;;;;7.40;5.20;;;;;;;9.21;64.92;95026.11;108068;1270;33549;-76
2022/04/07 03:33:54;;;;;;;10.00;5.10;;;;;;;9.22;64.90;95030.96;108162;1270;31110;-76
2022/04/07 03:36:24;;;;;;;6.90;4.40;;;;;;;9.23;64.96;95030.19;108164;1270;35917;-76
2022/04/07 03:38:55;;;;;;;8.30;5.00;;;;;;;9.26;64.91;95032.36;108149;1270;35659;-76
2022/04/07 03:41:28;;;;;;;8.70;6.60;;;;;;;9.28;64.94;95028.77;108141;1270;33052;-76
2022/04/07 03:44:00;;;;;;;7.40;4.80;;;;;;;9.33;64.69;95022.66;108196;1270;30778;-76
2022/04/07 03:46:31;;;;;;;6.80;4.70;;;;;;;9.41;64.50;95019.36;108092;1270;42251;-76
2022/04/07 03:49:02;;;;;;;7.10;4.00;;;;;;;9.51;64.18;95022.48;108112;1270;40166;-75
2022/04/07 03:51:33;;;;;;;6.90;4.50;;;;;;;9.65;63.65;95023.31;108113;1270;50502;-76
2022/04/07 03:54:04;;;;;;;7.00;4.40;;;;;;;9.79;63.27;95020.30;108083;1270;39486;-75
2022/04/07 03:56:35;;;;;;;5.10;4.00;;;;;;;9.95;62.72;95018.48;108132;1270;40463;-76
2022/04/07 03:59:06;;;;;;;25.10;12.70;;;;;;;10.03;62.40;95019.55;108181;1270;32954;-76
2022/04/07 04:01:39;;;;;;;11.70;7.10;;;;;;;10.07;62.10;95014.02;108090;1270;34091;-75
2022/04/07 04:04:10;;;;;;;7.20;4.70;;;;;;;10.05;61.97;95011.63;108100;1270;32377;-76
2022/04/07 04:06:42;;;;;;;8.30;5.50;;;;;;;10.16;61.22;95009.56;108095;1270;33845;-76
2022/04/07 04:09:12;;;;;;;7.90;5.50;;;;;;;10.26;61.08;95010.62;108163;1270;40018;-75
2022/04/07 04:11:43;;;;;;;8.20;4.60;;;;;;;10.26;61.33;95017.59;108072;1270;61090;-75
2022/04/07 04:14:14;;;;;;;5.90;4.20;;;;;;;10.07;61.55;95017.23;108109;1270;35978;-76
2022/04/07 04:16:46;;;;;;;9.70;5.80;;;;;;;9.85;61.86;95022.29;108079;1270;30829;-76
2022/04/07 04:19:16;;;;;;;7.30;4.70;;;;;;;9.64;62.28;95021.64;108084;1270;38056;-76
2022/04/07 04:21:48;;;;;;;6.40;4.30;;;;;;;9.52;62.63;95018.38;108077;1270;40981;-75
2022/04/07 04:24:19;;;;;;;5.20;3.90;;;;;;;9.45;62.81;95019.14;108085;1270;34322;-76
2022/04/07 04:26:51;;;;;;;6.90;4.50;;;;;;;9.37;63.17;95022.29;108093;1270;45332;-76
2022/04/07 04:29:22;;;;;;;6.70;4.60;;;;;;;9.27;63.43;95021.36;108070;1270;41671;-76
2022/04/07 04:31:53;;;;;;;8.40;5.00;;;;;;;9.22;63.68;95021.48;108105;1270;33369;-76
2022/04/07 04:34:24;;;;;;;7.20;4.80;;;;;;;9.16;63.81;95023.56;107968;1270;35897;-76
2022/04/07 04:36:55;;;;;;;7.60;5.20;;;;;;;9.17;64.00;95020.58;108103;1270;32705;-75
2022/04/07 04:39:26;;;;;;;7.60;5.00;;;;;;;9.23;64.14;95025.12;108072;1270;42248;-76
2022/04/07 04:41:57;;;;;;;8.60;5.60;;;;;;;9.25;64.15;95025.65;108070;1270;50719;-76
2022/04/07 04:44:28;;;;;;;7.10;4.70;;;;;;;9.32;64.30;95024.18;108010;1270;49661;-76
2022/04/07 04:46:59;;;;;;;7.30;5.60;;;;;;;9.53;64.31;95021.59;108086;1270;42655;-76
2022/04/07 04:49:30;;;;;;;7.20;5.40;;;;;;;9.98;64.05;95019.55;108077;1270;35264;-76
2022/04/07 04:52:01;;;;;;;6.10;5.10;;;;;;;10.54;63.43;95010.81;108035;1270;49222;-76
2022/04/07 04:54:33;;;;;;;8.80;6.30;;;;;;;11.11;62.72;95002.67;108008;1270;38015;-76
2022/04/07 04:57:06;;;;;;;8.80;5.70;;;;;;;11.55;61.96;94997.67;108109;1270;33964;-76
2022/04/07 04:59:37;;;;;;;6.80;5.20;;;;;;;11.43;60.80;94994.64;108032;1271;34399;-76
2022/04/07 05:02:08;;;;;;;7.30;5.20;;;;;;;11.16;60.99;95000.45;108117;1270;35872;-76
2022/04/07 05:04:38;;;;;;;7.70;5.10;;;;;;;10.95;61.03;95009.13;108110;1270;45245;-76
2022/04/07 05:07:10;;;;;;;7.70;5.40;;;;;;;10.76;61.05;95012.52;107969;1270;71738;-76
2022/04/07 05:09:41;;;;;;;6.30;4.70;;;;;;;10.57;61.24;95017.06;107994;1270;41718;-76
2022/04/07 05:12:13;;;;;;;8.60;6.40;;;;;;;10.42;61.57;95027.27;108051;1270;33915;-76
2022/04/07 05:14:43;;;;;;;6.50;4.80;;;;;;;10.28;61.75;95032.28;107984;1271;37935;-76
2022/04/07 05:17:15;;;;;;;8.60;5.50;;;;;;;10.15;61.91;95037.34;108089;1270;37229;-76
2022/04/07 05:19:47;;;;;;;6.50;4.90;;;;;;;10.07;62.18;95037.27;107934;1273;37960;-76
2022/04/07 05:22:18;;;;;;;8.20;4.80;;;;;;;10.06;62.22;95035.77;108091;1270;33799;-76
2022/04/07 05:24:50;;;;;;;8.60;5.00;;;;;;;10.02;62.30;95034.29;108047;1270;35010;-76
2022/04/07 05:27:22;;;;;;;9.10;5.30;;;;;;;10.02;62.23;95031.14;108036;1270;30810;-76
2022/04/07 05:29:53;;;;;;;6.30;5.00;;;;;;;10.03;62.34;95031.79;108092;1270;31716;-76
2022/04/07 05:32:24;;;;;;;7.10;5.00;;;;;;;10.06;62.55;95026.64;107923;1273;37757;-76
2022/04/07 05:34:55;;;;;;;9.30;5.60;;;;;;;10.20;62.56;95026.86;107982;1270;62110;-76
2022/04/07 05:37:26;;;;;;;7.80;5.60;;;;;;;10.44;62.36;95023.42;108043;1270;53745;-76
2022/04/07 05:39:57;;;;;;;9.30;5.50;;;;;;;10.61;61.83;95024.05;108011;1271;34738;-76
2022/04/07 05:42:28;;;;;;;8.00;4.90;;;;;;;10.71;61.72;95025.56;108039;1270;42096;-76
2022/04/07 05:44:58;;;;;;;8.40;6.10;;;;;;;11.04;61.49;95021.59;108061;1270;47001;-76
2022/04/07 05:47:29;;;;;;;6.30;5.30;;;;;;;11.57;61.08;95018.08;108061;1270;38632;-76
2022/04/07 05:50:00;;;;;;;9.50;5.80;;;;;;;12.37;60.28;95015.77;108073;1270;45320;-76
2022/04/07 05:52:31;;;;;;;8.00;5.90;;;;;;;12.92;58.64;95009.11;108099;1270;34074;-76
2022/04/07 05:55:03;;;;;;;7.30;5.90;;;;;;;12.65;57.91;95008.64;108028;1270;35332;-75
2022/04/07 05:57:34;;;;;;;8.30;6.20;;;;;;;12.30;57.71;95007.81;108053;1270;31930;-76
2022/04/07 06:00:10;;;;;;;8.20;6.40;;;;;;;12.03;57.77;95009.59;108083;1270;35785;-76
2022/04/07 06:02:41;;;;;;;7.80;5.70;;;;;;;11.90;58.20;95011.48;108075;1270;39807;-76
2022/04/07 06:05:16;;;;;;;8.10;6.10;;;;;;;12.61;58.67;95011.25;108125;1270;34203;-76
2022/04/07 06:07:48;;;;;;;7.40;5.70;;;;;;;13.96;57.35;95005.04;108104;1270;34087;-76
2022/04/07 06:10:19;;;;;;;7.70;5.90;;;;;;;15.06;55.75;95002.96;107895;1273;51128;-76
2022/04/07 06:12:50;;;;;;;8.10;5.50;;;;;;;16.05;54.23;94999.95;108097;1270;38487;-76
2022/04/07 06:15:21;;;;;;;6.10;4.90;;;;;;;16.99;52.55;94999.59;107979;1271;43677;-76
2022/04/07 06:17:54;;;;;;;5.70;4.70;;;;;;;17.41;50.45;95004.77;108112;1270;35059;-76
2022/04/07 06:20:25;;;;;;;5.80;4.70;;;;;;;16.94;48.63;95005.40;108094;1270;43450;-76
2022/04/07 06:22:56;;;;;;;6.20;4.40;;;;;;;15.91;48.82;95006.14;108125;1270;38370;-76
2022/04/07 06:25:27;;;;;;;7.20;4.90;;;;;;;15.16;49.74;95011.35;108117;1270;40202;-76
2022/04/07 06:28:02;;;;;;;5.70;4.60;;;;;;;14.68;50.65;95006.08;108060;1270;43970;-76
2022/04/07 06:30:33;;;;;;;6.30;4.10;;;;;;;14.22;51.24;95010.95;107996;1271;39422;-76
2022/04/07 06:33:04;;;;;;;5.50;4.10;;;;;;;13.89;52.38;95004.71;108113;1270;32226;-76
2022/04/07 06:35:35;;;;;;;5.80;3.70;;;;;;;13.64;52.42;95005.13;108145;1270;39166;-76
2022/04/07 06:38:06;;;;;;;6.20;4.10;;;;;;;13.36;52.99;95001.64;108123;1270;33866;-76
2022/04/07 06:40:37;;;;;;;6.90;4.10;;;;;;;13.20;53.67;94999.27;108092;1270;35525;-76
2022/04/07 06:43:08;;;;;;;6.00;4.60;;;;;;;13.19;54.02;94996.79;108044;1270;34523;-76
2022/04/07 06:45:45;;;;;;;7.60;4.60;;;;;;;13.61;54.25;94988.92;108087;1270;34191;-76
2022/04/07 06:48:16;;;;;;;6.50;4.40;;;;;;;15.10;52.86;94985.20;108079;1270;35118;-76
2022/04/07 06:50:47;;;;;;;6.60;4.20;;;;;;;16.27;51.07;94975.84;108075;1270;44205;-76
2022/04/07 06:53:18;;;;;;;6.90;4.80;;;;;;;17.13;49.41;94975.18;108052;1270;41088;-77
2022/04/07 06:55:49;;;;;;;7.10;4.90;;;;;;;17.83;47.90;94974.11;108073;1270;40228;-76
2022/04/07 06:58:21;;;;;;;6.10;4.50;;;;;;;17.34;46.80;94977.79;108096;1269;32718;-76
2022/04/07 07:00:51;;;;;;;5.90;4.30;;;;;;;17.18;47.51;94982.08;108000;1270;44066;-76
2022/04/07 07:03:24;;;;;;;5.50;4.00;;;;;;;17.15;46.89;94978.05;108082;1267;39583;-76
2022/04/07 07:05:58;;;;;;;5.20;3.60;;;;;;;16.51;46.86;94975.21;108125;1270;45502;-76
2022/04/07 07:08:29;;;;;;;6.40;3.60;;;;;;;16.39;47.90;94967.66;108058;1270;42320;-77
2022/04/07 07:11:00;;;;;;;6.20;3.90;;;;;;;17.68;47.76;94965.91;108051;1270;33357;-77
2022/04/07 07:13:32;;;;;;;5.20;4.00;;;;;;;18.82;45.93;94967.83;108040;1271;42649;-77
2022/04/07 07:16:04;;;;;;;4.80;3.60;;;;;;;19.75;44.60;94969.86;108135;1270;39454;-77
2022/04/07 07:18:34;;;;;;;4.90;4.00;;;;;;;20.46;43.32;94962.86;108159;1270;41404;-77
2022/04/07 07:21:06;;;;;;;5.20;3.90;;;;;;;19.79;42.60;94963.97;108117;1270;47252;-77
2022/04/07 07:23:36;;;;;;;4.90;3.60;;;;;;;18.74;43.36;94972.20;107967;1271;35960;-77
2022/04/07 07:26:08;;;;;;;5.10;4.00;;;;;;;18.05;44.19;94968.34;108099;1270;35312;-77
2022/04/07 07:28:39;;;;;;;5.40;4.10;;;;;;;17.74;44.41;94963.44;108144;1270;32545;-77
2022/04/07 07:31:10;;;;;;;4.30;3.60;;;;;;;17.31;45.33;94960.08;108088;1270;52364;-77
2022/04/07 07:33:41;;;;;;;4.60;3.60;;;;;;;17.44;46.34;94957.65;108049;1270;42771;-77
2022/04/07 07:36:12;;;;;;;3.20;2.80;;;;;;;17.60;45.49;94952.36;108089;1270;39806;-77
2022/04/07 07:38:43;;;;;;;4.30;3.20;;;;;;;17.79;45.84;94955.15;108137;1271;37149;-77
2022/04/07 07:41:14;;;;;;;4.50;2.40;;;;;;;18.25;44.89;94953.84;107991;1270;45623;-77
2022/04/07 07:43:45;;;;;;;4.10;2.90;;;;;;;17.76;44.43;94949.45;108104;1270;35697;-77
2022/04/07 07:46:16;;;;;;;5.60;3.30;;;;;;;18.06;44.97;94954.79;108096;1270;36547;-77
2022/04/07 07:48:47;;;;;;;5.30;3.60;;;;;;;18.60;44.71;94953.36;108077;1270;45137;-77
2022/04/07 07:51:18;;;;;;;4.00;3.00;;;;;;;18.71;44.23;94950.55;108030;1270;48292;-77
2022/04/07 07:53:49;;;;;;;4.90;3.30;;;;;;;19.21;44.65;94955.17;108040;1271;37617;-77
2022/04/07 07:56:20;;;;;;;4.50;3.20;;;;;;;20.22;42.90;94953.85;108068;1270;41330;-77
2022/04/07 07:58:50;;;;;;;5.00;3.30;;;;;;;20.69;41.36;94957.36;108038;1271;34975;-77
2022/04/07 08:12:43;;;;;;;4.20;2.20;;;;;;;19.60;38.38;94958.96;108209;1270;36073;-77
2022/04/07 08:15:14;;;;;;;2.80;2.50;;;;;;;18.62;40.13;94952.61;108148;1270;44515;-77
2022/04/07 08:17:45;;;;;;;2.90;2.10;;;;;;;18.34;41.27;94950.80;108160;1270;33997;-76
2022/04/07 08:20:17;;;;;;;2.10;1.90;;;;;;;17.71;41.89;94945.92;107996;1271;50743;-76
2022/04/07 08:22:49;;;;;;;2.50;1.90;;;;;;;17.07;42.20;94950.61;108122;1271;43055;-76
2022/04/07 08:25:19;;;;;;;2.50;2.00;;;;;;;16.45;42.44;94958.61;108152;1270;41571;-76
2022/04/07 08:27:50;;;;;;;2.10;1.90;;;;;;;16.13;42.92;94956.80;108018;1271;32144;-76
2022/04/07 08:30:21;;;;;;;2.40;1.50;;;;;;;15.91;43.68;94955.92;108156;1271;34412;-76
2022/04/07 08:32:52;;;;;;;2.40;1.70;;;;;;;15.52;43.74;94947.33;108108;1271;36339;-76
2022/04/07 08:35:23;;;;;;;2.20;1.50;;;;;;;15.09;44.88;94953.46;107959;1273;33197;-76
2022/04/07 08:37:54;;;;;;;2.90;1.80;;;;;;;14.86;45.02;94951.19;108146;1271;43382;-76
2022/04/07 08:40:25;;;;;;;2.40;1.40;;;;;;;14.83;45.65;94955.55;108131;1271;45911;-76
2022/04/07 08:42:57;;;;;;;2.80;1.80;;;;;;;14.97;45.73;94953.13;108108;1270;48582;-76
2022/04/07 08:45:30;;;;;;;2.30;1.90;;;;;;;14.95;45.56;94951.02;108065;1271;49550;-76
2022/04/07 08:48:01;;;;;;;2.20;1.90;;;;;;;14.99;46.07;94947.59;108099;1271;45581;-77
2022/04/07 08:50:35;;;;;;;1.90;1.60;;;;;;;15.14;46.55;94942.91;108091;1271;47229;-77
2022/04/07 08:53:06;;;;;;;3.20;2.10;;;;;;;16.17;46.34;94937.45;108144;1270;35210;-77
2022/04/07 08:55:38;;;;;;;3.80;1.90;;;;;;;17.02;44.71;94930.80;108133;1271;36751;-76
2022/04/07 08:58:17;;;;;;;2.30;2.00;;;;;;;17.30;43.48;94929.83;108090;1270;36349;-77
2022/04/07 09:00:49;;;;;;;2.80;2.00;;;;;;;18.04;43.73;94928.14;108141;1271;35024;-77
2022/04/07 09:03:20;;;;;;;3.10;1.40;;;;;;;18.55;42.02;94923.86;108001;1270;45112;-77
2022/04/07 09:05:56;;;;;;;2.40;1.90;;;;;;;18.26;40.99;94921.75;108043;1271;41510;-76
2022/04/07 09:08:35;;;;;;;2.70;2.00;;;;;;;18.16;42.40;94921.88;108059;1271;40845;-76
2022/04/07 09:11:08;;;;;;;3.30;2.00;;;;;;;18.70;41.76;94913.20;108158;1270;33715;-77
2022/04/07 09:13:41;;;;;;;2.60;2.00;;;;;;;18.73;40.57;94905.55;108053;1270;41207;-77
2022/04/07 09:16:15;;;;;;;3.40;1.70;;;;;;;19.31;40.74;94901.28;107896;1274;47079;-77
2022/04/07 09:18:47;;;;;;;3.60;2.00;;;;;;;19.60;40.35;94893.06;108066;1271;31816;-77
2022/04/07 09:21:27;;;;;;;3.10;1.70;;;;;;;19.69;39.97;94887.66;108069;1271;38086;-77
2022/04/07 09:24:00;;;;;;;2.30;1.90;;;;;;;19.08;39.63;94890.23;108185;1271;41925;-77
2022/04/07 09:26:32;;;;;;;3.60;2.00;;;;;;;18.32;40.49;94890.38;108053;1271;31208;-77
2022/04/07 09:29:11;;;;;;;2.40;1.80;;;;;;;17.72;41.71;94890.35;108116;1271;37625;-76
2022/04/07 09:31:52;;;;;;;2.20;1.90;;;;;;;17.28;42.11;94886.95;108051;1270;40168;-77
2022/04/07 09:34:33;;;;;;;2.20;1.50;;;;;;;17.03;43.28;94888.43;108060;1271;42831;-77
2022/04/07 09:37:09;;;;;;;2.50;1.80;;;;;;;17.11;43.19;94888.55;108093;1271;29540;-77
2022/04/07 09:39:41;;;;;;;2.80;2.20;;;;;;;16.96;43.44;94890.17;108037;1271;31612;-77
2022/04/07 09:42:25;;;;;;;2.00;1.80;;;;;;;16.93;42.74;94886.86;108022;1270;36348;-77
2022/04/07 09:44:59;;;;;;;2.40;1.70;;;;;;;16.76;44.10;94880.40;108088;1271;32180;-77
2022/04/07 09:47:38;;;;;;;3.40;1.80;;;;;;;16.79;43.62;94879.83;108004;1271;41137;-77
2022/04/07 09:50:20;;;;;;;1.90;1.60;;;;;;;16.44;43.47;94875.91;107905;1274;35856;-77
2022/04/07 09:52:58;;;;;;;2.20;1.60;;;;;;;16.27;43.99;94874.09;108039;1270;43779;-77
2022/04/07 09:55:34;;;;;;;1.40;1.20;;;;;;;16.18;43.78;94872.71;108156;1271;31876;-77
2022/04/07 09:58:07;;;;;;;2.70;1.70;;;;;;;16.13;43.86;94866.98;108160;1271;43731;-77
2022/04/07 10:00:39;;;;;;;2.30;1.70;;;;;;;16.15;44.11;94859.52;108114;1271;41206;-77
2022/04/07 10:03:10;;;;;;;3.00;1.80;;;;;;;16.12;44.29;94855.19;108028;1271;42100;-76
2022/04/07 10:05:43;;;;;;;2.00;1.60;;;;;;;16.23;44.39;94853.32;108011;1271;48683;-77
2022/04/07 10:08:16;;;;;;;2.40;1.40;;;;;;;16.25;44.17;94848.16;107986;1271;43455;-77
2022/04/07 10:10:48;;;;;;;2.10;1.40;;;;;;;16.36;44.64;94842.84;108059;1271;43848;-77
2022/04/07 10:13:19;;;;;;;3.30;1.50;;;;;;;16.64;44.76;94838.08;108053;1271;43900;-77
2022/04/07 10:15:52;;;;;;;3.00;2.00;;;;;;;16.73;44.39;94837.60;107911;1272;38014;-77
2022/04/07 10:18:34;;;;;;;2.00;1.40;;;;;;;16.61;44.26;94833.06;107890;1274;41897;-77
2022/04/07 10:21:10;;;;;;;3.00;1.90;;;;;;;16.17;44.16;94831.52;108088;1271;33541;-77
2022/04/07 10:23:52;;;;;;;2.50;1.80;;;;;;;15.80;44.52;94832.87;108020;1271;34591;-77
2022/04/07 10:26:25;;;;;;;2.60;1.80;;;;;;;15.63;45.34;94835.00;108079;1270;30354;-77
2022/04/07 10:28:59;;;;;;;3.20;1.70;;;;;;;15.64;45.54;94829.16;108047;1270;43909;-77
2022/04/07 10:31:32;;;;;;;1.70;1.60;;;;;;;15.69;45.72;94817.94;108030;1270;44028;-77
2022/04/07 10:34:09;;;;;;;4.40;1.30;;;;;;;15.72;45.58;94815.39;107995;1274;36445;-77
2022/04/07 10:36:41;;;;;;;2.50;1.60;;;;;;;15.84;46.07;94809.20;108003;1270;40522;-77
2022/04/07 10:39:15;;;;;;;2.30;1.60;;;;;;;16.11;45.76;94807.66;108049;1270;44063;-77
2022/04/07 10:41:49;;;;;;;2.70;1.70;;;;;;;16.35;45.99;94800.58;108048;1271;46630;-77
2022/04/07 10:44:23;;;;;;;2.30;1.40;;;;;;;16.61;44.95;94798.98;108084;1270;29593;-77
2022/04/07 10:47:04;;;;;;;1.60;1.10;;;;;;;16.65;44.82;94787.50;108001;1271;43263;-77
2022/04/07 10:49:35;;;;;;;1.90;1.50;;;;;;;16.86;44.58;94779.38;108109;1270;40814;-77
2022/04/07 10:52:07;;;;;;;1.80;1.30;;;;;;;17.23;44.27;94781.53;108107;1270;47717;-77
2022/04/07 10:55:13;;;;;;;1.30;0.80;;;;;;;17.67;44.34;94771.08;108031;1271;47677;-77
2022/04/07 10:58:14;;;;;;;2.40;1.60;;;;;;;17.65;42.28;94766.98;108017;1270;41269;-77
2022/04/07 11:00:45;;;;;;;1.30;1.10;;;;;;;17.51;43.04;94758.27;107976;1271;50377;-77
2022/04/07 11:03:19;;;;;;;1.30;1.10;;;;;;;17.64;43.64;94753.96;107993;1271;45706;-77
2022/04/07 11:06:01;;;;;;;1.10;0.90;;;;;;;17.67;42.83;94754.00;108071;1270;35866;-77
2022/04/07 11:08:32;;;;;;;1.70;1.20;;;;;;;17.45;42.12;94754.38;108036;1269;29060;-77
2022/04/07 11:11:03;;;;;;;3.20;1.20;;;;;;;17.28;42.81;94754.56;108038;1270;44596;-77
2022/04/07 11:13:49;;;;;;;1.00;0.80;;;;;;;17.37;42.82;94748.55;108052;1270;46339;-78
2022/04/07 11:16:30;;;;;;;1.20;1.10;;;;;;;17.38;42.59;94745.96;108031;1270;42094;-77
2022/04/07 11:19:23;;;;;;;2.20;1.30;;;;;;;17.60;42.93;94736.55;107984;1270;44056;-77
2022/04/07 11:22:07;;;;;;;1.80;1.00;;;;;;;18.00;42.01;94726.97;108026;1270;38501;-77
2022/04/07 11:24:44;;;;;;;0.70;0.60;;;;;;;18.04;41.88;94721.86;108079;1270;42529;-78
2022/04/07 11:27:39;;;;;;;1.30;0.80;;;;;;;17.90;41.52;94730.02;108094;1270;39738;-78
2022/04/07 11:30:14;;;;;;;2.00;1.00;;;;;;;17.77;41.09;94724.94;108008;1270;44253;-77
2022/04/07 11:33:27;;;;;;;0.60;0.60;;;;;;;17.76;41.88;94718.65;108066;1270;31327;-78
2022/04/07 11:36:31;;;;;;;1.30;0.80;;;;;;;17.57;41.03;94717.36;108007;1270;49525;-78
2022/04/07 11:39:04;;;;;;;1.40;1.00;;;;;;;17.63;40.91;94707.70;108037;1270;42996;-78
2022/04/07 11:41:42;;;;;;;1.50;1.20;;;;;;;17.72;41.80;94708.80;108129;1268;41741;-78
2022/04/07 11:44:14;;;;;;;1.40;1.00;;;;;;;17.88;42.14;94700.36;108040;1270;32209;-78
2022/04/07 11:46:46;;;;;;;2.20;1.10;;;;;;;18.16;42.00;94699.96;107916;1273;45629;-78
2022/04/07 11:49:19;;;;;;;1.70;1.20;;;;;;;18.27;41.23;94691.44;108025;1270;39137;-78
2022/04/07 11:51:50;;;;;;;4.00;1.40;;;;;;;18.11;40.70;94690.73;108033;1270;40908;-78
2022/04/07 11:54:21;;;;;;;1.40;1.10;;;;;;;18.12;41.18;94684.45;108034;1270;49100;-78
2022/04/07 11:56:53;;;;;;;1.70;1.10;;;;;;;18.10;40.28;94674.48;107992;1270;45030;-78
2022/04/07 11:59:25;;;;;;;1.40;1.20;;;;;;;17.83;40.74;94680.64;108002;1270;41367;-79
2022/04/07 12:01:56;;;;;;;1.50;1.10;;;;;;;17.90;40.99;94676.87;108056;1270;30162;-78
2022/04/07 12:04:34;;;;;;;3.00;0.90;;;;;;;18.00;40.61;94670.11;108012;1270;40761;-78
2022/04/07 12:07:09;;;;;;;1.70;0.80;;;;;;;17.99;40.90;94664.81;108119;1270;35485;-78